createdAt,value
2022-08-03T00:00:32.029Z,16.95
2022-08-03T00:03:06.032Z,17.13
2022-08-03T00:06:04.720Z,17.30
2022-08-03T00:08:40.164Z,18.88
2022-08-03T00:11:14.277Z,22.05
2022-08-03T00:13:47.956Z,17.77
2022-08-03T00:16:21.852Z,16.40
2022-08-03T00:18:57.066Z,15.85
2022-08-03T00:21:32.157Z,13.00
2022-08-03T00:24:06.664Z,12.88
2022-08-03T00:26:40.350Z,13.95
2022-08-03T00:29:13.932Z,16.67
2022-08-03T00:31:52.424Z,14.13
2022-08-03T00:34:57.110Z,13.73
2022-08-03T00:37:21.517Z,13.77
2022-08-03T00:40:16.013Z,15.13
2022-08-03T00:42:51.955Z,13.10
2022-08-03T00:45:27.371Z,13.13
2022-08-03T00:48:01.710Z,14.05
2022-08-03T00:50:40.142Z,18.50
2022-08-03T00:53:16.048Z,15.80
2022-08-03T00:55:52.214Z,16.25
2022-08-03T00:58:25.988Z,14.25
2022-08-03T01:00:59.865Z,17.50
2022-08-03T01:03:33.532Z,14.52
2022-08-03T01:06:11.613Z,15.98
2022-08-03T01:08:53.945Z,14.80
2022-08-03T01:11:35.848Z,16.95
2022-08-03T01:14:38.531Z,16.65
2022-08-03T01:17:19.991Z,13.77
2022-08-03T01:20:00.623Z,12.25
2022-08-03T01:23:12.129Z,14.70
2022-08-03T01:26:06.158Z,18.50
2022-08-03T01:31:30.072Z,22.13
2022-08-03T01:34:09.303Z,13.63
2022-08-03T01:36:53.880Z,16.20
2022-08-03T01:39:30.633Z,14.82
2022-08-03T01:42:07.754Z,17.13
2022-08-03T01:44:44.164Z,14.75
2022-08-03T01:47:22.526Z,13.90
2022-08-03T01:49:58.904Z,16.05
2022-08-03T01:52:34.539Z,17.85
2022-08-03T01:55:11.209Z,14.70
2022-08-03T01:58:04.742Z,15.00
2022-08-03T02:00:41.517Z,15.70
2022-08-03T02:03:17.981Z,19.83
2022-08-03T02:06:17.843Z,18.88
2022-08-03T02:08:49.976Z,18.30
2022-08-03T02:11:24.049Z,17.60
2022-08-03T02:14:00.072Z,14.82
2022-08-03T02:16:35.359Z,16.05
2022-08-03T02:19:12.503Z,15.00
2022-08-03T02:21:57.356Z,17.00
2022-08-03T02:24:35.078Z,14.90
2022-08-03T02:27:16.424Z,17.85
2022-08-03T02:29:54.280Z,17.10
2022-08-03T02:32:32.026Z,16.20
2022-08-03T02:35:12.505Z,17.15
2022-08-03T02:37:50.196Z,17.08
2022-08-03T02:40:25.792Z,14.73
2022-08-03T02:43:04.024Z,18.70
2022-08-03T02:45:45.511Z,13.52
2022-08-03T02:48:24.188Z,16.95
2022-08-03T02:51:01.163Z,14.27
2022-08-03T02:53:36.353Z,14.70
2022-08-03T02:56:11.682Z,15.15
2022-08-03T02:58:46.753Z,13.80
2022-08-03T03:01:23.393Z,14.43
2022-08-03T03:03:58.704Z,13.25
2022-08-03T03:06:37.699Z,14.18
2022-08-03T03:09:13.693Z,16.83
2022-08-03T03:11:49.022Z,15.45
2022-08-03T03:14:33.878Z,17.92
2022-08-03T03:17:09.605Z,16.40
2022-08-03T03:19:45.375Z,12.43
2022-08-03T03:22:21.354Z,13.30
2022-08-03T03:24:56.125Z,17.38
2022-08-03T03:27:30.635Z,15.30
2022-08-03T03:30:06.750Z,17.65
2022-08-03T03:32:40.914Z,14.23
2022-08-03T03:35:16.811Z,13.63
2022-08-03T03:37:51.869Z,15.70
2022-08-03T03:40:25.845Z,13.30
2022-08-03T03:42:59.382Z,15.02
2022-08-03T03:48:07.312Z,19.13
2022-08-03T03:50:41.662Z,16.10
2022-08-03T03:53:16.906Z,20.90
2022-08-03T03:56:01.218Z,16.42
2022-08-03T03:58:36.308Z,12.50
2022-08-03T04:01:10.137Z,14.95
2022-08-03T04:03:43.949Z,17.15
2022-08-03T04:06:35.170Z,19.23
2022-08-03T04:09:29.310Z,20.63
2022-08-03T04:14:39.383Z,16.38
2022-08-03T04:17:15.167Z,21.88
2022-08-03T04:19:51.991Z,22.88
2022-08-03T04:22:29.433Z,20.70
2022-08-03T04:25:08.622Z,17.92
2022-08-03T04:27:43.821Z,21.45
2022-08-03T04:30:18.023Z,22.25
2022-08-03T04:32:53.239Z,19.70
2022-08-03T04:36:02.072Z,21.30
2022-08-03T04:38:26.995Z,20.27
2022-08-03T04:41:02.517Z,17.45
2022-08-03T04:43:36.680Z,19.13
2022-08-03T04:46:11.685Z,24.23
2022-08-03T04:48:46.433Z,28.90
2022-08-03T04:51:20.326Z,22.83
2022-08-03T04:53:53.921Z,19.30
2022-08-03T04:56:29.011Z,23.42
2022-08-03T04:59:03.170Z,17.42
2022-08-03T05:01:36.980Z,18.45
2022-08-03T05:04:10.887Z,21.60
2022-08-03T05:06:48.083Z,21.08
2022-08-03T05:09:33.481Z,22.10
2022-08-03T05:12:17.130Z,20.27
2022-08-03T05:14:50.867Z,18.25
2022-08-03T05:17:24.454Z,22.40
2022-08-03T05:19:58.052Z,17.20
2022-08-03T05:22:31.739Z,15.65
2022-08-03T05:25:06.011Z,16.25
2022-08-03T05:27:41.048Z,12.35
2022-08-03T05:30:31.430Z,18.30
2022-08-03T05:33:08.033Z,15.57
2022-08-03T05:36:02.484Z,17.73
2022-08-03T05:38:35.652Z,14.40
2022-08-03T05:41:21.214Z,13.73
2022-08-03T05:43:58.891Z,13.13
2022-08-03T05:46:33.073Z,13.95
2022-08-03T05:49:06.792Z,16.05
2022-08-03T05:51:40.438Z,11.40
2022-08-03T05:54:14.471Z,16.88
2022-08-03T05:56:48.068Z,10.82
2022-08-03T05:59:38.052Z,10.60
2022-08-03T06:02:12.177Z,10.63
2022-08-03T06:04:45.804Z,10.15
2022-08-03T06:07:19.853Z,11.30
2022-08-03T06:10:33.310Z,13.80
2022-08-03T06:15:24.622Z,15.05
2022-08-03T06:18:01.794Z,14.68
2022-08-03T06:20:35.618Z,13.98
2022-08-03T06:23:16.009Z,12.70
2022-08-03T06:25:51.294Z,11.10
2022-08-03T06:28:53.140Z,12.35
2022-08-03T06:31:19.982Z,14.85
2022-08-03T06:34:35.121Z,15.18
2022-08-03T06:36:48.685Z,13.73
2022-08-03T06:39:23.676Z,10.93
2022-08-03T06:41:58.194Z,17.05
2022-08-03T06:44:31.874Z,14.75
2022-08-03T06:47:07.033Z,10.57
2022-08-03T06:49:41.763Z,14.25
2022-08-03T06:52:15.386Z,9.40
2022-08-03T06:55:09.619Z,12.57
2022-08-03T06:57:43.310Z,12.73
2022-08-03T07:00:17.462Z,10.43
2022-08-03T07:02:57.686Z,11.25
2022-08-03T07:05:33.685Z,10.65
2022-08-03T07:08:07.994Z,12.55
2022-08-03T07:10:41.690Z,16.13
2022-08-03T07:13:15.312Z,13.82
2022-08-03T07:15:55.768Z,11.77
2022-08-03T07:18:31.627Z,15.90
2022-08-03T07:21:05.469Z,9.00
2022-08-03T07:23:39.054Z,8.55
2022-08-03T07:26:13.409Z,8.43
2022-08-03T07:28:47.094Z,8.93
2022-08-03T07:31:21.025Z,8.38
2022-08-03T07:33:56.235Z,11.52
2022-08-03T07:36:29.863Z,5.95
2022-08-03T07:39:17.582Z,8.95
2022-08-03T07:41:51.982Z,7.72
2022-08-03T07:44:25.547Z,6.70
2022-08-03T07:46:59.381Z,10.15
2022-08-03T07:49:42.457Z,7.40
2022-08-03T07:52:33.413Z,8.23
2022-08-03T07:55:08.398Z,4.78
2022-08-03T07:57:42.144Z,6.90
2022-08-03T08:00:17.991Z,5.97
2022-08-03T08:02:51.713Z,6.95
2022-08-03T08:05:27.027Z,9.80
2022-08-03T08:08:00.676Z,5.88
2022-08-03T08:10:34.408Z,5.18
2022-08-03T08:13:08.352Z,5.88
2022-08-03T08:15:43.673Z,8.73
2022-08-03T08:18:17.414Z,7.85
2022-08-03T08:20:52.829Z,7.22
2022-08-03T08:23:42.727Z,5.57
2022-08-03T08:26:17.931Z,6.38
2022-08-03T08:28:52.970Z,8.48
2022-08-03T08:31:26.567Z,7.18
2022-08-03T08:34:04.642Z,6.18
2022-08-03T08:36:40.090Z,6.68
2022-08-03T08:39:13.852Z,8.32
2022-08-03T08:41:53.375Z,9.90
2022-08-03T08:44:27.107Z,5.75
2022-08-03T08:47:04.179Z,6.63
2022-08-03T08:49:39.814Z,4.78
2022-08-03T08:52:25.165Z,5.40
2022-08-03T08:55:04.072Z,5.38
2022-08-03T08:57:43.525Z,3.72
2022-08-03T09:00:18.901Z,3.65
2022-08-03T09:02:52.532Z,5.90
2022-08-03T09:05:47.404Z,3.65
2022-08-03T09:08:21.922Z,3.63
2022-08-03T09:10:55.635Z,3.70
2022-08-03T09:13:30.682Z,5.30
2022-08-03T09:16:12.891Z,2.80
2022-08-03T09:18:48.488Z,6.97
2022-08-03T09:21:33.911Z,3.40
2022-08-03T09:24:20.585Z,3.10
2022-08-03T09:27:03.298Z,2.35
2022-08-03T09:29:37.207Z,3.90
2022-08-03T09:32:12.645Z,3.80
2022-08-03T09:34:48.178Z,4.38
2022-08-03T09:38:11.192Z,3.00
2022-08-03T09:40:36.999Z,4.18
2022-08-03T09:43:11.382Z,2.97
2022-08-03T09:45:45.897Z,4.05
2022-08-03T09:48:24.798Z,4.47
2022-08-03T09:51:12.749Z,3.33
2022-08-03T09:53:59.692Z,2.67
2022-08-03T09:56:43.149Z,2.70
2022-08-03T09:59:26.049Z,3.17
2022-08-03T10:02:01.162Z,3.63
2022-08-03T10:04:34.879Z,2.55
2022-08-03T10:07:10.731Z,4.65
2022-08-03T10:09:55.656Z,3.65
2022-08-03T10:12:31.045Z,3.10
2022-08-03T10:15:04.812Z,3.70
2022-08-03T10:17:40.324Z,3.20
2022-08-03T10:20:14.251Z,6.28
2022-08-03T10:22:48.898Z,3.85
2022-08-03T10:25:23.469Z,4.07
2022-08-03T10:28:09.594Z,3.10
2022-08-03T10:30:49.275Z,2.92
2022-08-03T10:33:49.624Z,8.23
2022-08-03T10:36:20.578Z,8.82
2022-08-03T10:38:55.366Z,3.95
2022-08-03T10:41:34.735Z,2.55
2022-08-03T10:44:15.865Z,4.38
2022-08-03T10:46:50.839Z,3.08
2022-08-03T10:49:34.678Z,3.40
2022-08-03T10:52:12.988Z,4.40
2022-08-03T10:55:07.729Z,2.97
2022-08-03T10:57:58.591Z,4.22
2022-08-03T11:00:51.165Z,3.40
2022-08-03T11:03:24.741Z,3.27
2022-08-03T11:06:19.239Z,5.50
2022-08-03T11:09:17.053Z,3.40
2022-08-03T11:11:51.700Z,3.55
2022-08-03T11:14:25.385Z,3.92
2022-08-03T11:17:14.533Z,3.22
2022-08-03T11:19:57.503Z,3.63
2022-08-03T11:22:50.079Z,4.25
2022-08-03T11:25:53.323Z,6.65
2022-08-03T11:28:28.650Z,3.70
2022-08-03T11:31:51.821Z,3.67
2022-08-03T11:34:27.579Z,3.97
2022-08-03T11:37:30.109Z,3.78
2022-08-03T11:40:07.337Z,3.80
2022-08-03T11:42:44.131Z,3.83
2022-08-03T11:45:20.022Z,3.45
2022-08-03T11:47:56.523Z,3.53
2022-08-03T11:50:38.014Z,4.20
2022-08-03T11:53:16.363Z,4.50
2022-08-03T11:55:50.305Z,5.43
2022-08-03T11:58:58.107Z,4.65
2022-08-03T12:01:22.983Z,6.88
2022-08-03T12:03:56.865Z,3.55
2022-08-03T12:06:32.043Z,3.92
2022-08-03T12:09:17.627Z,3.28
2022-08-03T12:12:00.381Z,3.65
2022-08-03T12:14:49.199Z,3.42
2022-08-03T12:17:25.398Z,5.65
2022-08-03T12:19:59.135Z,3.83
2022-08-03T12:22:35.196Z,4.40
2022-08-03T12:25:10.593Z,5.85
2022-08-03T12:27:44.126Z,3.30
2022-08-03T12:30:18.102Z,4.07
2022-08-03T12:32:51.805Z,4.47
2022-08-03T12:35:26.152Z,3.58
2022-08-03T12:38:01.304Z,3.92
2022-08-03T12:40:35.059Z,4.57
2022-08-03T12:43:14.145Z,4.13
2022-08-03T12:45:47.884Z,4.70
2022-08-03T12:48:21.578Z,3.72
2022-08-03T12:51:09.961Z,3.58
2022-08-03T12:53:53.952Z,3.80
2022-08-03T12:56:28.029Z,3.80
2022-08-03T12:59:01.804Z,5.45
2022-08-03T13:01:49.013Z,5.45
2022-08-03T13:04:30.654Z,4.07
2022-08-03T13:07:12.708Z,6.75
2022-08-03T13:09:51.545Z,4.28
2022-08-03T13:12:27.242Z,4.60
2022-08-03T13:15:01.904Z,4.95
2022-08-03T13:17:35.999Z,3.80
2022-08-03T13:20:13.113Z,6.07
2022-08-03T13:22:52.132Z,5.68
2022-08-03T13:25:27.090Z,4.97
2022-08-03T13:28:04.796Z,5.53
2022-08-03T13:30:39.904Z,3.88
2022-08-03T13:33:13.726Z,4.63
2022-08-03T13:35:47.288Z,5.18
2022-08-03T13:38:21.663Z,4.38
2022-08-03T13:41:04.863Z,4.30
2022-08-03T13:43:40.201Z,4.65
2022-08-03T13:46:13.995Z,5.78
2022-08-03T13:48:47.674Z,5.05
2022-08-03T13:51:22.512Z,5.13
2022-08-03T13:53:57.464Z,4.43
2022-08-03T13:56:33.375Z,4.63
2022-08-03T13:59:07.504Z,5.80
2022-08-03T14:01:55.026Z,4.90
2022-08-03T14:04:29.417Z,5.85
2022-08-03T14:07:03.330Z,4.90
2022-08-03T14:09:37.054Z,4.70
2022-08-03T14:12:12.101Z,4.22
2022-08-03T14:14:45.842Z,7.63
2022-08-03T14:17:19.719Z,4.55
2022-08-03T14:19:56.940Z,5.80
2022-08-03T14:22:31.597Z,4.65
2022-08-03T14:25:06.475Z,4.50
2022-08-03T14:27:45.097Z,4.40
2022-08-03T14:30:18.921Z,8.52
2022-08-03T14:32:52.515Z,4.65
2022-08-03T14:35:26.540Z,5.65
2022-08-03T14:38:00.170Z,4.88
2022-08-03T14:40:33.852Z,7.15
2022-08-03T14:43:08.961Z,5.85
2022-08-03T14:45:42.940Z,4.82
2022-08-03T14:50:32.074Z,6.35
2022-08-03T14:51:10.485Z,4.55
2022-08-03T14:53:44.151Z,5.18
2022-08-03T14:56:17.935Z,7.85
2022-08-03T14:58:53.024Z,5.57
2022-08-03T15:02:02.195Z,6.88
2022-08-03T15:04:20.480Z,5.13
2022-08-03T15:06:54.320Z,5.35
2022-08-03T15:09:28.087Z,5.25
2022-08-03T15:12:01.835Z,5.30
2022-08-03T15:14:37.901Z,6.95
2022-08-03T15:17:11.770Z,6.55
2022-08-03T15:20:01.594Z,5.20
2022-08-03T15:22:41.210Z,6.70
2022-08-03T15:26:32.314Z,5.85
2022-08-03T15:28:08.428Z,5.32
2022-08-03T15:30:43.616Z,4.95
2022-08-03T15:33:17.164Z,5.03
2022-08-03T15:35:50.935Z,8.68
2022-08-03T15:38:25.972Z,7.07
2022-08-03T15:41:00.010Z,6.40
2022-08-03T15:43:33.679Z,5.75
2022-08-03T15:46:28.657Z,6.53
2022-08-03T15:49:03.051Z,6.63
2022-08-03T15:51:37.096Z,7.00
2022-08-03T15:54:10.793Z,6.22
2022-08-03T15:56:45.620Z,7.25
2022-08-03T15:59:19.903Z,5.65
2022-08-03T16:01:57.307Z,10.65
2022-08-03T16:04:31.047Z,8.00
2022-08-03T16:07:04.694Z,6.03
2022-08-03T16:09:42.352Z,6.00
2022-08-03T16:12:17.648Z,5.95
2022-08-03T16:14:53.433Z,5.93
2022-08-03T16:17:28.854Z,5.30
2022-08-03T16:20:05.104Z,5.18
2022-08-03T16:22:46.980Z,4.93
2022-08-03T16:25:20.715Z,5.60
2022-08-03T16:28:03.170Z,5.68
2022-08-03T16:30:42.776Z,5.45
2022-08-03T16:33:18.326Z,6.57
2022-08-03T16:35:51.901Z,7.82
2022-08-03T16:38:26.296Z,5.60
2022-08-03T16:40:59.897Z,6.43
2022-08-03T16:43:34.908Z,16.25
2022-08-03T16:46:09.875Z,11.10
2022-08-03T16:48:44.897Z,7.68
2022-08-03T16:51:18.673Z,7.65
2022-08-03T16:54:08.002Z,9.70
2022-08-03T16:56:45.919Z,9.88
2022-08-03T16:59:22.361Z,7.80
2022-08-03T17:02:16.558Z,7.88
2022-08-03T17:04:56.193Z,11.35
2022-08-03T17:07:30.384Z,10.63
2022-08-03T17:10:04.335Z,6.32
2022-08-03T17:12:40.387Z,9.40
2022-08-03T17:15:14.621Z,11.75
2022-08-03T17:18:00.094Z,13.95
2022-08-03T17:20:42.607Z,10.35
2022-08-03T17:23:38.110Z,11.80
2022-08-03T17:26:21.274Z,15.35
2022-08-03T17:28:58.127Z,9.50
2022-08-03T17:31:48.813Z,9.98
2022-08-03T17:34:26.517Z,10.73
2022-08-03T17:37:04.109Z,10.90
2022-08-03T17:42:33.001Z,11.43
2022-08-03T17:45:07.807Z,12.55
2022-08-03T17:47:57.994Z,16.52
2022-08-03T17:50:40.258Z,14.13
2022-08-03T17:53:25.064Z,16.58
2022-08-03T17:56:40.351Z,20.13
2022-08-03T17:59:13.527Z,17.52
2022-08-03T18:02:22.257Z,18.88
2022-08-03T18:05:16.685Z,9.30
2022-08-03T18:08:00.862Z,14.82
2022-08-03T18:10:49.922Z,13.45
2022-08-03T18:13:26.426Z,11.77
2022-08-03T18:16:05.845Z,48.60
2022-08-03T18:18:42.978Z,15.02
2022-08-03T18:21:17.562Z,15.50
2022-08-03T18:23:52.410Z,16.35
2022-08-03T18:26:27.609Z,10.65
2022-08-03T18:29:02.812Z,10.93
2022-08-03T18:32:02.453Z,11.73
2022-08-03T18:34:34.243Z,9.55
2022-08-03T18:37:08.730Z,8.60
2022-08-03T18:39:49.951Z,11.70
2022-08-03T18:42:27.814Z,12.10
2022-08-03T18:45:55.105Z,9.55
2022-08-03T18:48:09.824Z,14.80
2022-08-03T18:50:52.470Z,10.13
2022-08-03T18:54:01.850Z,11.80
2022-08-03T18:56:45.048Z,15.20
2022-08-03T18:59:30.430Z,17.20
2022-08-03T19:02:09.265Z,26.60
2022-08-03T19:04:48.055Z,22.48
2022-08-03T19:07:28.876Z,25.98
2022-08-03T19:10:15.809Z,22.30
2022-08-03T19:12:56.314Z,21.77
2022-08-03T19:15:41.508Z,26.77
2022-08-03T19:18:26.501Z,30.10
2022-08-03T19:21:03.574Z,24.95
2022-08-03T19:23:50.602Z,25.38
2022-08-03T19:26:30.951Z,39.28
2022-08-03T19:29:14.798Z,32.35
2022-08-03T19:31:59.319Z,21.33
2022-08-03T19:34:35.110Z,19.45
2022-08-03T19:37:15.440Z,17.70
2022-08-03T19:39:56.651Z,21.02
2022-08-03T19:42:33.808Z,15.57
2022-08-03T19:45:11.278Z,17.50
2022-08-03T19:47:53.870Z,15.90
2022-08-03T19:50:28.231Z,16.80
2022-08-03T19:53:06.520Z,20.45
2022-08-03T19:55:48.857Z,16.48
2022-08-03T19:58:28.813Z,15.73
2022-08-03T20:01:21.219Z,13.45
2022-08-03T20:03:56.695Z,12.60
2022-08-03T20:06:30.372Z,13.20
2022-08-03T20:09:05.434Z,15.43
2022-08-03T20:11:45.026Z,12.82
2022-08-03T20:14:26.227Z,14.73
2022-08-03T20:17:00.505Z,11.98
2022-08-03T20:19:38.171Z,13.82
2022-08-03T20:22:14.320Z,13.90
2022-08-03T20:24:53.019Z,12.75
2022-08-03T20:27:30.106Z,12.48
2022-08-03T20:30:07.029Z,12.75
2022-08-03T20:32:42.715Z,12.75
2022-08-03T20:35:17.938Z,17.13
2022-08-03T20:37:51.536Z,16.23
2022-08-03T20:40:27.317Z,12.27
2022-08-03T20:43:01.569Z,12.57
2022-08-03T20:46:01.044Z,14.02
2022-08-03T20:51:15.729Z,11.05
2022-08-03T20:54:00.410Z,19.38
2022-08-03T20:56:36.642Z,13.20
2022-08-03T20:59:15.210Z,17.23
2022-08-03T21:01:49.007Z,16.95
2022-08-03T21:04:24.134Z,15.85
2022-08-03T21:07:04.038Z,16.48
2022-08-03T21:12:50.091Z,13.25
2022-08-03T21:16:06.860Z,12.40
2022-08-03T21:18:22.455Z,11.77
2022-08-03T21:20:58.675Z,11.60
2022-08-03T21:23:47.681Z,11.55
2022-08-03T21:26:24.732Z,11.50
2022-08-03T21:28:58.650Z,11.57
2022-08-03T21:31:32.211Z,15.25
2022-08-03T21:34:07.137Z,12.00
2022-08-03T21:36:40.648Z,16.10
2022-08-03T21:39:15.697Z,15.35
2022-08-03T21:41:49.364Z,17.80
2022-08-03T21:44:25.162Z,16.83
2022-08-03T21:47:04.434Z,15.00
2022-08-03T21:50:04.390Z,13.00
2022-08-03T21:52:34.000Z,15.85
2022-08-03T21:55:20.579Z,15.45
2022-08-03T21:57:58.592Z,15.43
2022-08-03T22:00:32.766Z,13.15
2022-08-03T22:03:17.452Z,17.67
2022-08-03T22:05:52.450Z,13.98
2022-08-03T22:08:39.124Z,18.15
2022-08-03T22:11:14.965Z,18.25
2022-08-03T22:13:49.099Z,14.75
2022-08-03T22:16:23.342Z,14.18
2022-08-03T22:18:56.955Z,13.30
2022-08-03T22:21:36.440Z,15.55
2022-08-03T22:24:10.368Z,14.77
2022-08-03T22:27:07.007Z,13.70
2022-08-03T22:29:43.370Z,15.20
2022-08-03T22:32:16.988Z,10.55
2022-08-03T22:34:51.264Z,14.18
2022-08-03T22:37:28.814Z,32.22
2022-08-03T22:40:08.825Z,14.02
2022-08-03T22:42:46.193Z,12.27
2022-08-03T22:46:05.939Z,13.60
2022-08-03T22:48:18.095Z,12.45
2022-08-03T22:50:52.193Z,12.80
2022-08-03T22:53:25.784Z,12.38
2022-08-03T22:55:59.916Z,13.88
2022-08-03T22:58:34.873Z,12.82
2022-08-03T23:01:10.366Z,13.65
2022-08-03T23:03:59.288Z,12.63
2022-08-03T23:06:38.482Z,12.68
2022-08-03T23:09:14.231Z,14.38
2022-08-03T23:11:49.207Z,13.48
2022-08-03T23:14:24.930Z,13.82
2022-08-03T23:17:04.283Z,13.60
2022-08-03T23:19:41.694Z,14.15
2022-08-03T23:22:30.204Z,14.15
2022-08-03T23:25:04.968Z,13.75
2022-08-03T23:27:42.003Z,13.85
2022-08-03T23:30:17.455Z,15.18
2022-08-03T23:32:54.731Z,17.20
2022-08-03T23:36:28.210Z,16.45
2022-08-03T23:38:40.591Z,17.75
2022-08-03T23:41:14.891Z,19.35
2022-08-03T23:43:52.450Z,18.05
2022-08-03T23:46:30.935Z,17.10
2022-08-03T23:49:04.940Z,68.50
2022-08-03T23:51:44.877Z,18.80
2022-08-03T23:54:30.502Z,16.15
2022-08-03T23:57:10.596Z,19.75
